sensor_id;sensor_type;location;lat;lon;timestamp;pressure;altitude;pressure_sealevel;temperature;humidity
10652;BME280;5374;42.742;23.266;2023-08-21T00:01:42;95738.28;;;21.83;67.09
10652;BME280;5374;42.742;23.266;2023-08-21T00:04:31;95732.09;;;21.82;67.20
10652;BME280;5374;42.742;23.266;2023-08-21T00:07:18;95731.44;;;21.77;67.06
10652;BME280;5374;42.742;23.266;2023-08-21T00:10:06;95736.34;;;21.75;67.44
10652;BME280;5374;42.742;23.266;2023-08-21T00:12:53;95740.78;;;21.71;67.58
10652;BME280;5374;42.742;23.266;2023-08-21T00:15:40;95737.28;;;21.70;67.23
10652;BME280;5374;42.742;23.266;2023-08-21T00:18:27;95731.88;;;21.70;67.26
10652;BME280;5374;42.742;23.266;2023-08-21T00:21:16;95730.94;;;21.75;67.44
10652;BME280;5374;42.742;23.266;2023-08-21T00:26:38;95733.31;;;21.68;67.87
10652;BME280;5374;42.742;23.266;2023-08-21T00:29:25;95734.25;;;21.63;68.14
10652;BME280;5374;42.742;23.266;2023-08-21T00:32:12;95732.78;;;21.57;68.15
10652;BME280;5374;42.742;23.266;2023-08-21T00:34:59;95738.00;;;21.54;68.32
10652;BME280;5374;42.742;23.266;2023-08-21T00:37:48;95740.22;;;21.52;68.55
10652;BME280;5374;42.742;23.266;2023-08-21T00:40:35;95739.13;;;21.53;68.97
10652;BME280;5374;42.742;23.266;2023-08-21T00:43:22;95729.09;;;21.44;68.94
10652;BME280;5374;42.742;23.266;2023-08-21T00:46:09;95739.41;;;21.42;69.61
10652;BME280;5374;42.742;23.266;2023-08-21T00:48:57;95746.22;;;21.40;69.26
10652;BME280;5374;42.742;23.266;2023-08-21T00:51:44;95742.25;;;21.37;69.48
10652;BME280;5374;42.742;23.266;2023-08-21T00:54:33;95739.22;;;21.39;69.62
10652;BME280;5374;42.742;23.266;2023-08-21T00:57:21;95734.09;;;21.29;70.25
10652;BME280;5374;42.742;23.266;2023-08-21T01:00:11;95741.56;;;21.32;70.36
10652;BME280;5374;42.742;23.266;2023-08-21T01:02:58;95737.88;;;21.28;70.71
10652;BME280;5374;42.742;23.266;2023-08-21T01:05:45;95732.16;;;21.21;70.61
10652;BME280;5374;42.742;23.266;2023-08-21T01:08:41;95740.09;;;21.26;71.05
10652;BME280;5374;42.742;23.266;2023-08-21T01:11:38;95740.09;;;21.26;71.67
10652;BME280;5374;42.742;23.266;2023-08-21T01:14:33;95748.34;;;21.21;71.33
10652;BME280;5374;42.742;23.266;2023-08-21T01:17:23;95744.88;;;21.20;71.53
10652;BME280;5374;42.742;23.266;2023-08-21T01:20:11;95751.94;;;21.16;71.51
10652;BME280;5374;42.742;23.266;2023-08-21T01:23:03;95740.47;;;21.10;71.56
10652;BME280;5374;42.742;23.266;2023-08-21T01:25:52;95752.88;;;21.11;71.59
10652;BME280;5374;42.742;23.266;2023-08-21T01:28:39;95753.97;;;21.10;71.64
10652;BME280;5374;42.742;23.266;2023-08-21T01:31:30;95749.00;;;21.04;72.10
10652;BME280;5374;42.742;23.266;2023-08-21T01:34:18;95747.66;;;20.93;72.23
10652;BME280;5374;42.742;23.266;2023-08-21T01:37:06;95747.47;;;20.89;72.51
10652;BME280;5374;42.742;23.266;2023-08-21T01:39:54;95754.47;;;20.90;72.25
10652;BME280;5374;42.742;23.266;2023-08-21T01:42:46;95762.69;;;20.85;72.62
10652;BME280;5374;42.742;23.266;2023-08-21T01:45:33;95755.19;;;20.82;72.79
10652;BME280;5374;42.742;23.266;2023-08-21T01:48:20;95754.72;;;20.80;72.68
10652;BME280;5374;42.742;23.266;2023-08-21T01:51:07;95748.34;;;20.76;72.93
10652;BME280;5374;42.742;23.266;2023-08-21T01:53:54;95744.06;;;20.75;73.16
10652;BME280;5374;42.742;23.266;2023-08-21T01:56:41;95748.97;;;20.73;73.45
10652;BME280;5374;42.742;23.266;2023-08-21T01:59:30;95753.38;;;20.69;73.61
10652;BME280;5374;42.742;23.266;2023-08-21T02:02:17;95743.91;;;20.58;74.08
10652;BME280;5374;42.742;23.266;2023-08-21T02:05:05;95747.41;;;20.58;74.26
10652;BME280;5374;42.742;23.266;2023-08-21T02:07:52;95755.78;;;20.57;74.44
10652;BME280;5374;42.742;23.266;2023-08-21T02:10:47;95748.84;;;20.56;74.52
10652;BME280;5374;42.742;23.266;2023-08-21T02:13:35;95749.94;;;20.55;74.73
10652;BME280;5374;42.742;23.266;2023-08-21T02:16:23;95750.66;;;20.46;74.87
10652;BME280;5374;42.742;23.266;2023-08-21T02:19:10;95760.84;;;20.50;74.81
10652;BME280;5374;42.742;23.266;2023-08-21T02:21:57;95748.44;;;20.48;75.60
10652;BME280;5374;42.742;23.266;2023-08-21T02:24:45;95756.44;;;20.40;75.72
10652;BME280;5374;42.742;23.266;2023-08-21T02:27:32;95747.06;;;20.37;75.92
10652;BME280;5374;42.742;23.266;2023-08-21T02:30:19;95721.31;;;20.18;76.08
10652;BME280;5374;42.742;23.266;2023-08-21T02:33:12;95754.63;;;20.35;76.24
10652;BME280;5374;42.742;23.266;2023-08-21T02:35:59;95741.88;;;20.27;76.81
10652;BME280;5374;42.742;23.266;2023-08-21T02:38:49;95737.28;;;20.28;76.68
10652;BME280;5374;42.742;23.266;2023-08-21T02:41:36;95749.53;;;20.34;77.32
10652;BME280;5374;42.742;23.266;2023-08-21T02:44:23;95746.66;;;20.30;77.71
10652;BME280;5374;42.742;23.266;2023-08-21T02:47:11;95742.47;;;20.24;77.92
10652;BME280;5374;42.742;23.266;2023-08-21T02:49:59;95754.88;;;20.25;78.08
10652;BME280;5374;42.742;23.266;2023-08-21T02:52:46;95732.91;;;20.18;77.60
10652;BME280;5374;42.742;23.266;2023-08-21T02:55:33;95745.06;;;20.29;77.43
10652;BME280;5374;42.742;23.266;2023-08-21T02:58:20;95749.47;;;20.25;77.10
10652;BME280;5374;42.742;23.266;2023-08-21T03:01:07;95758.97;;;20.23;77.40
10652;BME280;5374;42.742;23.266;2023-08-21T03:03:55;95752.28;;;20.20;77.57
10652;BME280;5374;42.742;23.266;2023-08-21T03:06:43;95760.56;;;20.24;77.83
10652;BME280;5374;42.742;23.266;2023-08-21T03:09:30;95749.81;;;20.10;78.54
10652;BME280;5374;42.742;23.266;2023-08-21T03:12:17;95756.19;;;20.14;78.86
10652;BME280;5374;42.742;23.266;2023-08-21T03:15:05;95767.25;;;20.12;79.68
10652;BME280;5374;42.742;23.266;2023-08-21T03:17:52;95763.28;;;20.10;79.54
10652;BME280;5374;42.742;23.266;2023-08-21T03:20:44;95761.28;;;20.02;80.15
10652;BME280;5374;42.742;23.266;2023-08-21T03:23:32;95768.69;;;19.96;80.50
10652;BME280;5374;42.742;23.266;2023-08-21T03:26:19;95768.19;;;19.94;80.97
10652;BME280;5374;42.742;23.266;2023-08-21T03:29:07;95771.69;;;19.95;81.01
10652;BME280;5374;42.742;23.266;2023-08-21T03:31:54;95755.72;;;19.85;81.53
10652;BME280;5374;42.742;23.266;2023-08-21T03:34:41;95764.69;;;19.94;81.45
10652;BME280;5374;42.742;23.266;2023-08-21T03:37:28;95767.78;;;20.01;81.44
10652;BME280;5374;42.742;23.266;2023-08-21T03:40:17;95769.47;;;19.97;81.85
10652;BME280;5374;42.742;23.266;2023-08-21T03:43:04;95771.69;;;19.95;81.92
10652;BME280;5374;42.742;23.266;2023-08-21T03:45:51;95770.69;;;19.91;81.78
10652;BME280;5374;42.742;23.266;2023-08-21T03:48:38;95753.94;;;19.80;81.88
10652;BME280;5374;42.742;23.266;2023-08-21T03:51:25;95769.69;;;20.00;82.02
10652;BME280;5374;42.742;23.266;2023-08-21T03:54:12;95768.28;;;20.03;81.75
10652;BME280;5374;42.742;23.266;2023-08-21T03:57:01;95781.16;;;20.06;81.78
10652;BME280;5374;42.742;23.266;2023-08-21T03:59:48;95774.56;;;20.12;81.21
10652;BME280;5374;42.742;23.266;2023-08-21T04:02:35;95774.16;;;20.19;80.97
10652;BME280;5374;42.742;23.266;2023-08-21T04:05:22;95768.16;;;20.22;80.54
10652;BME280;5374;42.742;23.266;2023-08-21T04:08:09;95785.72;;;20.33;80.15
10652;BME280;5374;42.742;23.266;2023-08-21T04:10:56;95782.53;;;20.44;79.58
10652;BME280;5374;42.742;23.266;2023-08-21T04:13:47;95795.00;;;20.54;79.23
10652;BME280;5374;42.742;23.266;2023-08-21T04:16:34;95795.34;;;20.75;78.24
10652;BME280;5374;42.742;23.266;2023-08-21T04:19:21;95793.59;;;21.68;74.41
10652;BME280;5374;42.742;23.266;2023-08-21T04:22:08;95789.44;;;23.02;66.77
10652;BME280;5374;42.742;23.266;2023-08-21T04:24:55;95787.81;;;24.29;60.92
10652;BME280;5374;42.742;23.266;2023-08-21T04:27:43;95789.06;;;25.35;56.61
10652;BME280;5374;42.742;23.266;2023-08-21T04:30:31;95781.06;;;26.33;52.85
10652;BME280;5374;42.742;23.266;2023-08-21T04:33:18;95789.47;;;27.32;50.15
10652;BME280;5374;42.742;23.266;2023-08-21T04:36:06;95791.25;;;28.31;46.98
10652;BME280;5374;42.742;23.266;2023-08-21T04:38:53;95788.41;;;29.33;44.45
10652;BME280;5374;42.742;23.266;2023-08-21T04:41:41;95805.53;;;30.37;41.66
10652;BME280;5374;42.742;23.266;2023-08-21T04:44:30;95808.50;;;31.34;39.70
10652;BME280;5374;42.742;23.266;2023-08-21T04:47:23;95809.56;;;32.40;37.53
10652;BME280;5374;42.742;23.266;2023-08-21T04:50:12;95808.25;;;33.44;35.65
10652;BME280;5374;42.742;23.266;2023-08-21T04:53:01;95819.88;;;34.38;33.85
10652;BME280;5374;42.742;23.266;2023-08-21T04:55:48;95815.81;;;35.24;32.61
10652;BME280;5374;42.742;23.266;2023-08-21T04:58:35;95826.13;;;36.01;31.06
10652;BME280;5374;42.742;23.266;2023-08-21T05:01:23;95818.00;;;36.83;30.11
10652;BME280;5374;42.742;23.266;2023-08-21T05:04:11;95824.22;;;37.66;28.68
10652;BME280;5374;42.742;23.266;2023-08-21T05:06:58;95830.47;;;38.27;27.66
10652;BME280;5374;42.742;23.266;2023-08-21T05:09:45;95833.91;;;39.08;27.31
10652;BME280;5374;42.742;23.266;2023-08-21T05:12:33;95827.78;;;39.76;26.34
10652;BME280;5374;42.742;23.266;2023-08-21T05:15:20;95824.78;;;40.39;25.22
10652;BME280;5374;42.742;23.266;2023-08-21T05:18:07;95821.72;;;41.27;24.26
10652;BME280;5374;42.742;23.266;2023-08-21T05:20:55;95833.56;;;42.02;23.44
10652;BME280;5374;42.742;23.266;2023-08-21T05:23:43;95800.91;;;42.50;22.89
10652;BME280;5374;42.742;23.266;2023-08-21T05:26:30;95830.97;;;43.06;22.30
10652;BME280;5374;42.742;23.266;2023-08-21T05:29:17;95839.38;;;43.93;21.34
10652;BME280;5374;42.742;23.266;2023-08-21T05:32:05;95836.69;;;44.42;21.35
10652;BME280;5374;42.742;23.266;2023-08-21T05:34:52;95831.69;;;44.86;20.89
10652;BME280;5374;42.742;23.266;2023-08-21T05:37:40;95833.91;;;45.55;20.05
10652;BME280;5374;42.742;23.266;2023-08-21T05:40:28;95826.97;;;45.93;19.64
10652;BME280;5374;42.742;23.266;2023-08-21T05:43:16;95823.09;;;46.56;19.14
10652;BME280;5374;42.742;23.266;2023-08-21T05:46:05;95822.06;;;46.78;18.79
10652;BME280;5374;42.742;23.266;2023-08-21T05:48:52;95815.16;;;47.26;18.39
10652;BME280;5374;42.742;23.266;2023-08-21T05:51:40;95822.69;;;47.59;18.44
10652;BME280;5374;42.742;23.266;2023-08-21T05:54:28;95819.31;;;47.84;18.45
10652;BME280;5374;42.742;23.266;2023-08-21T05:57:16;95822.03;;;47.79;17.74
10652;BME280;5374;42.742;23.266;2023-08-21T06:00:05;95821.19;;;47.87;18.18
10652;BME280;5374;42.742;23.266;2023-08-21T06:02:54;95822.19;;;47.46;18.25
10652;BME280;5374;42.742;23.266;2023-08-21T06:05:41;95816.97;;;46.91;18.53
10652;BME280;5374;42.742;23.266;2023-08-21T06:08:29;95810.72;;;46.06;19.32
10652;BME280;5374;42.742;23.266;2023-08-21T06:11:18;95815.94;;;44.98;20.29
10652;BME280;5374;42.742;23.266;2023-08-21T06:14:05;95827.50;;;44.11;21.11
10652;BME280;5374;42.742;23.266;2023-08-21T06:16:52;95819.72;;;43.18;21.72
10652;BME280;5374;42.742;23.266;2023-08-21T06:19:39;95812.28;;;41.92;22.75
10652;BME280;5374;42.742;23.266;2023-08-21T06:22:26;95816.03;;;41.02;24.14
10652;BME280;5374;42.742;23.266;2023-08-21T06:25:13;95816.94;;;40.50;24.99
10652;BME280;5374;42.742;23.266;2023-08-21T06:28:02;95811.63;;;39.87;25.31
10652;BME280;5374;42.742;23.266;2023-08-21T06:30:55;95816.50;;;39.44;26.56
10652;BME280;5374;42.742;23.266;2023-08-21T06:33:43;95818.94;;;39.02;26.25
10652;BME280;5374;42.742;23.266;2023-08-21T06:36:30;95826.50;;;38.51;26.53
10652;BME280;5374;42.742;23.266;2023-08-21T06:39:17;95817.84;;;38.22;26.99
10652;BME280;5374;42.742;23.266;2023-08-21T06:42:04;95827.16;;;38.09;27.75
10652;BME280;5374;42.742;23.266;2023-08-21T06:44:52;95817.50;;;37.93;28.10
10652;BME280;5374;42.742;23.266;2023-08-21T06:47:40;95826.38;;;37.81;28.15
10652;BME280;5374;42.742;23.266;2023-08-21T06:50:28;95817.47;;;37.33;28.48
10652;BME280;5374;42.742;23.266;2023-08-21T06:53:15;95827.69;;;37.39;28.90
10652;BME280;5374;42.742;23.266;2023-08-21T06:56:02;95822.13;;;37.39;28.27
10652;BME280;5374;42.742;23.266;2023-08-21T06:58:50;95821.28;;;37.08;29.23
10652;BME280;5374;42.742;23.266;2023-08-21T07:01:39;95816.94;;;37.07;29.31
10652;BME280;5374;42.742;23.266;2023-08-21T07:04:26;95816.81;;;37.18;29.39
10652;BME280;5374;42.742;23.266;2023-08-21T07:07:13;95816.44;;;37.19;29.38
10652;BME280;5374;42.742;23.266;2023-08-21T07:10:00;95788.44;;;37.07;30.09
10652;BME280;5374;42.742;23.266;2023-08-21T07:12:49;95815.41;;;37.40;28.99
10652;BME280;5374;42.742;23.266;2023-08-21T07:15:36;95806.28;;;37.40;29.22
10652;BME280;5374;42.742;23.266;2023-08-21T07:18:24;95806.50;;;37.22;29.45
10652;BME280;5374;42.742;23.266;2023-08-21T07:21:11;95801.56;;;37.37;28.86
10652;BME280;5374;42.742;23.266;2023-08-21T07:23:58;95797.00;;;37.53;29.38
10652;BME280;5374;42.742;23.266;2023-08-21T07:26:45;95810.69;;;37.71;28.31
10652;BME280;5374;42.742;23.266;2023-08-21T07:29:33;95799.69;;;37.60;29.03
10652;BME280;5374;42.742;23.266;2023-08-21T07:32:20;95804.28;;;37.44;29.51
10652;BME280;5374;42.742;23.266;2023-08-21T07:35:09;95806.28;;;37.40;29.57
10652;BME280;5374;42.742;23.266;2023-08-21T07:37:56;95806.78;;;37.65;28.95
10652;BME280;5374;42.742;23.266;2023-08-21T07:40:43;95800.63;;;37.81;27.99
10652;BME280;5374;42.742;23.266;2023-08-21T07:43:30;95790.69;;;37.83;28.65
10652;BME280;5374;42.742;23.266;2023-08-21T07:46:17;95796.38;;;37.99;28.45
10652;BME280;5374;42.742;23.266;2023-08-21T07:49:05;95795.13;;;38.04;27.79
10652;BME280;5374;42.742;23.266;2023-08-21T07:51:55;95779.53;;;37.87;28.19
10652;BME280;5374;42.742;23.266;2023-08-21T07:54:42;95794.34;;;38.04;28.75
10652;BME280;5374;42.742;23.266;2023-08-21T07:57:29;95790.88;;;38.23;27.66
10652;BME280;5374;42.742;23.266;2023-08-21T08:00:16;95784.44;;;38.29;27.53
10652;BME280;5374;42.742;23.266;2023-08-21T08:03:03;95775.16;;;38.16;26.98
10652;BME280;5374;42.742;23.266;2023-08-21T08:05:51;95785.59;;;38.05;26.97
10652;BME280;5374;42.742;23.266;2023-08-21T08:08:40;95784.28;;;38.17;26.98
10652;BME280;5374;42.742;23.266;2023-08-21T08:11:27;95775.44;;;38.22;26.73
10652;BME280;5374;42.742;23.266;2023-08-21T08:14:14;95775.28;;;38.06;27.32
10652;BME280;5374;42.742;23.266;2023-08-21T08:17:01;95771.41;;;37.99;27.38
10652;BME280;5374;42.742;23.266;2023-08-21T08:19:48;95766.53;;;38.11;27.76
10652;BME280;5374;42.742;23.266;2023-08-21T08:22:36;95769.41;;;38.27;27.78
10652;BME280;5374;42.742;23.266;2023-08-21T08:25:24;95770.44;;;38.13;27.93
10652;BME280;5374;42.742;23.266;2023-08-21T08:28:11;95762.66;;;38.01;28.70
10652;BME280;5374;42.742;23.266;2023-08-21T08:30:58;95766.09;;;37.85;29.17
10652;BME280;5374;42.742;23.266;2023-08-21T08:33:46;95758.75;;;37.98;28.26
10652;BME280;5374;42.742;23.266;2023-08-21T08:36:34;95759.72;;;37.88;28.96
10652;BME280;5374;42.742;23.266;2023-08-21T08:39:22;95751.44;;;37.27;29.21
10652;BME280;5374;42.742;23.266;2023-08-21T08:42:10;95748.00;;;37.47;28.86
10652;BME280;5374;42.742;23.266;2023-08-21T08:45:00;95739.97;;;37.25;29.57
10652;BME280;5374;42.742;23.266;2023-08-21T08:47:49;95737.34;;;37.45;28.87
10652;BME280;5374;42.742;23.266;2023-08-21T08:50:37;95743.56;;;37.53;28.31
10652;BME280;5374;42.742;23.266;2023-08-21T08:53:27;95733.88;;;37.64;29.28
10652;BME280;5374;42.742;23.266;2023-08-21T08:56:15;95737.63;;;37.81;28.71
10652;BME280;5374;42.742;23.266;2023-08-21T08:59:03;95735.13;;;37.90;28.11
10652;BME280;5374;42.742;23.266;2023-08-21T09:01:50;95745.94;;;37.81;27.70
10652;BME280;5374;42.742;23.266;2023-08-21T09:04:37;95740.63;;;37.67;27.89
10652;BME280;5374;42.742;23.266;2023-08-21T09:07:25;95742.16;;;37.72;27.37
10652;BME280;5374;42.742;23.266;2023-08-21T09:10:13;95735.69;;;37.78;27.95
10652;BME280;5374;42.742;23.266;2023-08-21T09:13:08;95732.53;;;37.76;28.47
10652;BME280;5374;42.742;23.266;2023-08-21T09:15:58;95745.69;;;37.72;27.23
10652;BME280;5374;42.742;23.266;2023-08-21T09:18:49;95731.09;;;37.38;27.64
10652;BME280;5374;42.742;23.266;2023-08-21T09:21:38;95730.34;;;37.34;27.03
10652;BME280;5374;42.742;23.266;2023-08-21T09:24:25;95721.63;;;37.35;27.18
10652;BME280;5374;42.742;23.266;2023-08-21T09:27:15;95729.41;;;37.13;27.93
10652;BME280;5374;42.742;23.266;2023-08-21T09:30:03;95720.00;;;36.73;28.07
10652;BME280;5374;42.742;23.266;2023-08-21T09:32:57;95704.63;;;36.27;29.95
10652;BME280;5374;42.742;23.266;2023-08-21T09:35:46;95717.81;;;36.09;29.50
10652;BME280;5374;42.742;23.266;2023-08-21T09:38:34;95717.31;;;36.21;29.28
10652;BME280;5374;42.742;23.266;2023-08-21T09:41:23;95705.59;;;36.51;29.25
10652;BME280;5374;42.742;23.266;2023-08-21T09:44:10;95707.44;;;36.61;29.06
10652;BME280;5374;42.742;23.266;2023-08-21T09:46:57;95707.44;;;36.61;27.85
10652;BME280;5374;42.742;23.266;2023-08-21T09:49:46;95716.38;;;36.39;28.44
10652;BME280;5374;42.742;23.266;2023-08-21T09:52:35;95704.44;;;36.45;27.36
10652;BME280;5374;42.742;23.266;2023-08-21T09:55:22;95708.22;;;36.62;28.20
10652;BME280;5374;42.742;23.266;2023-08-21T09:58:11;95702.66;;;36.65;27.56
10652;BME280;5374;42.742;23.266;2023-08-21T10:00:59;95705.41;;;36.65;26.83
10652;BME280;5374;42.742;23.266;2023-08-21T10:03:46;95697.81;;;36.77;26.65
10652;BME280;5374;42.742;23.266;2023-08-21T10:06:36;95690.97;;;36.85;28.02
10652;BME280;5374;42.742;23.266;2023-08-21T10:09:23;95680.97;;;36.94;27.27
10652;BME280;5374;42.742;23.266;2023-08-21T10:12:13;95674.84;;;36.80;28.02
10652;BME280;5374;42.742;23.266;2023-08-21T10:15:01;95684.94;;;36.93;26.87
10652;BME280;5374;42.742;23.266;2023-08-21T10:17:49;95676.53;;;36.67;27.49
10652;BME280;5374;42.742;23.266;2023-08-21T10:20:36;95678.72;;;36.48;29.02
10652;BME280;5374;42.742;23.266;2023-08-21T10:23:28;95666.41;;;36.56;28.61
10652;BME280;5374;42.742;23.266;2023-08-21T10:26:18;95666.84;;;36.51;27.12
10652;BME280;5374;42.742;23.266;2023-08-21T10:29:06;95671.56;;;36.54;27.33
10652;BME280;5374;42.742;23.266;2023-08-21T10:32:00;95657.13;;;36.74;27.71
10652;BME280;5374;42.742;23.266;2023-08-21T10:34:52;95651.72;;;36.93;27.50
10652;BME280;5374;42.742;23.266;2023-08-21T10:38:10;95647.97;;;37.07;26.52
10652;BME280;5374;42.742;23.266;2023-08-21T10:41:07;95646.22;;;36.90;25.93
10652;BME280;5374;42.742;23.266;2023-08-21T10:43:54;95654.28;;;37.08;26.42
10652;BME280;5374;42.742;23.266;2023-08-21T10:46:50;95644.09;;;37.31;25.82
10652;BME280;5374;42.742;23.266;2023-08-21T10:49:38;95637.03;;;37.54;26.24
10652;BME280;5374;42.742;23.266;2023-08-21T10:52:26;95649.03;;;37.17;26.10
10652;BME280;5374;42.742;23.266;2023-08-21T10:55:15;95623.97;;;36.97;25.83
10652;BME280;5374;42.742;23.266;2023-08-21T10:58:05;95630.44;;;36.87;26.06
10652;BME280;5374;42.742;23.266;2023-08-21T11:00:57;95619.22;;;36.97;26.70
10652;BME280;5374;42.742;23.266;2023-08-21T11:03:46;95632.00;;;36.88;26.49
10652;BME280;5374;42.742;23.266;2023-08-21T11:06:33;95624.28;;;36.76;26.14
10652;BME280;5374;42.742;23.266;2023-08-21T11:09:20;95617.00;;;36.55;26.03
10652;BME280;5374;42.742;23.266;2023-08-21T11:12:09;95620.88;;;36.23;26.06
10652;BME280;5374;42.742;23.266;2023-08-21T11:14:57;95619.91;;;36.00;26.54
10652;BME280;5374;42.742;23.266;2023-08-21T11:17:51;95627.31;;;35.69;26.40
10652;BME280;5374;42.742;23.266;2023-08-21T11:20:39;95621.00;;;35.68;27.44
10652;BME280;5374;42.742;23.266;2023-08-21T11:23:32;95629.88;;;35.42;26.80
10652;BME280;5374;42.742;23.266;2023-08-21T11:26:21;95612.97;;;35.25;26.47
10652;BME280;5374;42.742;23.266;2023-08-21T11:29:09;95612.38;;;35.00;27.27
10652;BME280;5374;42.742;23.266;2023-08-21T11:31:58;95612.72;;;35.02;26.39
10652;BME280;5374;42.742;23.266;2023-08-21T11:38:17;95614.00;;;34.90;26.73
10652;BME280;5374;42.742;23.266;2023-08-21T11:41:05;95612.28;;;35.11;26.96
10652;BME280;5374;42.742;23.266;2023-08-21T11:43:53;95601.56;;;35.23;26.69
10652;BME280;5374;42.742;23.266;2023-08-21T11:46:40;95597.38;;;35.56;28.17
10652;BME280;5374;42.742;23.266;2023-08-21T11:49:28;95588.16;;;35.77;26.60
10652;BME280;5374;42.742;23.266;2023-08-21T11:52:18;95589.88;;;36.02;26.29
10652;BME280;5374;42.742;23.266;2023-08-21T11:55:09;95602.88;;;36.05;26.81
10652;BME280;5374;42.742;23.266;2023-08-21T11:57:58;95602.41;;;36.13;26.31
10652;BME280;5374;42.742;23.266;2023-08-21T12:00:46;95598.88;;;36.13;26.27
10652;BME280;5374;42.742;23.266;2023-08-21T12:03:39;95601.56;;;36.16;26.52
10652;BME280;5374;42.742;23.266;2023-08-21T12:06:27;95606.03;;;36.07;26.10
10652;BME280;5374;42.742;23.266;2023-08-21T12:09:18;95586.25;;;36.08;27.09
10652;BME280;5374;42.742;23.266;2023-08-21T12:12:06;95593.25;;;36.20;26.64
10652;BME280;5374;42.742;23.266;2023-08-21T12:14:53;95568.63;;;36.33;27.03
10652;BME280;5374;42.742;23.266;2023-08-21T12:17:41;95584.44;;;36.62;25.92
10652;BME280;5374;42.742;23.266;2023-08-21T12:20:28;95578.28;;;36.51;26.34
10652;BME280;5374;42.742;23.266;2023-08-21T12:23:16;95590.44;;;36.27;26.11
10652;BME280;5374;42.742;23.266;2023-08-21T12:26:03;95584.81;;;35.93;26.70
10652;BME280;5374;42.742;23.266;2023-08-21T12:28:50;95581.66;;;35.94;26.64
10652;BME280;5374;42.742;23.266;2023-08-21T12:31:37;95573.66;;;36.04;25.87
10652;BME280;5374;42.742;23.266;2023-08-21T12:34:24;95575.25;;;36.05;26.95
10652;BME280;5374;42.742;23.266;2023-08-21T12:37:12;95571.44;;;36.29;26.95
10652;BME280;5374;42.742;23.266;2023-08-21T12:40:00;95580.38;;;36.40;25.95
10652;BME280;5374;42.742;23.266;2023-08-21T12:42:47;95565.03;;;36.36;26.15
10652;BME280;5374;42.742;23.266;2023-08-21T12:45:36;95563.50;;;36.31;26.27
10652;BME280;5374;42.742;23.266;2023-08-21T12:48:23;95550.72;;;36.07;26.19
10652;BME280;5374;42.742;23.266;2023-08-21T12:51:10;95554.50;;;36.20;25.06
10652;BME280;5374;42.742;23.266;2023-08-21T12:53:57;95570.91;;;36.04;26.27
10652;BME280;5374;42.742;23.266;2023-08-21T12:56:46;95565.06;;;35.94;25.86
10652;BME280;5374;42.742;23.266;2023-08-21T12:59:33;95556.50;;;35.85;26.75
10652;BME280;5374;42.742;23.266;2023-08-21T13:02:20;95555.69;;;35.85;25.77
10652;BME280;5374;42.742;23.266;2023-08-21T13:05:08;95545.41;;;35.89;25.84
10652;BME280;5374;42.742;23.266;2023-08-21T13:07:56;95514.78;;;35.69;25.60
10652;BME280;5374;42.742;23.266;2023-08-21T13:10:43;95546.59;;;35.88;25.82
10652;BME280;5374;42.742;23.266;2023-08-21T13:13:31;95540.66;;;35.89;25.82
10652;BME280;5374;42.742;23.266;2023-08-21T13:16:19;95534.97;;;36.04;25.87
10652;BME280;5374;42.742;23.266;2023-08-21T13:19:07;95523.91;;;36.04;25.72
10652;BME280;5374;42.742;23.266;2023-08-21T13:21:54;95528.91;;;35.78;26.33
10652;BME280;5374;42.742;23.266;2023-08-21T13:24:41;95528.09;;;35.81;25.80
10652;BME280;5374;42.742;23.266;2023-08-21T13:27:28;95528.09;;;35.81;25.66
10652;BME280;5374;42.742;23.266;2023-08-21T13:30:17;95521.59;;;35.57;25.81
10652;BME280;5374;42.742;23.266;2023-08-21T13:33:04;95517.78;;;35.44;25.67
10652;BME280;5374;42.742;23.266;2023-08-21T13:35:52;95517.09;;;35.26;26.09
10652;BME280;5374;42.742;23.266;2023-08-21T13:38:39;95530.47;;;35.35;26.06
10652;BME280;5374;42.742;23.266;2023-08-21T13:41:26;95511.94;;;35.35;26.08
10652;BME280;5374;42.742;23.266;2023-08-21T13:44:13;95533.66;;;35.29;26.49
10652;BME280;5374;42.742;23.266;2023-08-21T13:47:02;95524.75;;;35.04;27.04
10652;BME280;5374;42.742;23.266;2023-08-21T13:49:49;95520.19;;;34.80;27.07
10652;BME280;5374;42.742;23.266;2023-08-21T13:52:36;95519.06;;;34.74;27.32
10652;BME280;5374;42.742;23.266;2023-08-21T13:55:26;95523.34;;;34.82;27.61
10652;BME280;5374;42.742;23.266;2023-08-21T13:58:13;95518.66;;;34.79;27.99
10652;BME280;5374;42.742;23.266;2023-08-21T14:01:00;95523.34;;;34.82;27.91
10652;BME280;5374;42.742;23.266;2023-08-21T14:03:49;95521.75;;;34.84;27.51
10652;BME280;5374;42.742;23.266;2023-08-21T14:06:36;95529.25;;;34.84;27.85
10652;BME280;5374;42.742;23.266;2023-08-21T14:09:23;95516.25;;;34.81;27.82
10652;BME280;5374;42.742;23.266;2023-08-21T14:12:10;95529.69;;;34.75;28.36
10652;BME280;5374;42.742;23.266;2023-08-21T14:14:57;95525.78;;;34.66;28.02
10652;BME280;5374;42.742;23.266;2023-08-21T14:17:45;95527.44;;;34.56;28.79
10652;BME280;5374;42.742;23.266;2023-08-21T14:20:33;95517.22;;;34.49;28.42
10652;BME280;5374;42.742;23.266;2023-08-21T14:23:20;95516.34;;;34.59;28.35
10652;BME280;5374;42.742;23.266;2023-08-21T14:26:07;95534.97;;;34.41;28.28
10652;BME280;5374;42.742;23.266;2023-08-21T14:28:54;95531.03;;;34.39;28.44
10652;BME280;5374;42.742;23.266;2023-08-21T14:31:41;95532.69;;;34.22;28.13
10652;BME280;5374;42.742;23.266;2023-08-21T14:34:28;95535.50;;;34.11;28.12
10652;BME280;5374;42.742;23.266;2023-08-21T14:37:17;95539.03;;;34.05;28.66
10652;BME280;5374;42.742;23.266;2023-08-21T14:40:05;95539.47;;;33.92;28.90
10652;BME280;5374;42.742;23.266;2023-08-21T14:42:53;95539.50;;;33.85;28.98
10652;BME280;5374;42.742;23.266;2023-08-21T14:45:40;95520.97;;;33.75;28.76
10652;BME280;5374;42.742;23.266;2023-08-21T14:48:27;95533.56;;;33.76;28.88
10652;BME280;5374;42.742;23.266;2023-08-21T14:51:14;95539.91;;;33.66;29.05
10652;BME280;5374;42.742;23.266;2023-08-21T14:54:03;95530.06;;;33.54;29.03
10652;BME280;5374;42.742;23.266;2023-08-21T14:56:51;95535.59;;;33.61;28.96